TimeAKDT,TemperatureF,Dew PointF,Humidity,Sea Level PressureIn,VisibilityMPH,Wind Direction,Wind SpeedMPH,Gust SpeedMPH,PrecipitationIn,Events,Conditions,WindDirDegrees,DateUTC
12:56 AM,29.1,26.1,88,29.65,10.0,South,9.2,-,N/A,,Clear,170,2013-09-25 08:56:00
1:56 AM,28.0,25.2,89,29.64,10.0,SSW,12.7,-,N/A,,Clear,200,2013-09-25 09:56:00
2:41 AM,26.6,24.8,93,29.63,10.0,South,10.4,-,N/A,,Mostly Cloudy,180,2013-09-25 10:41:00
2:56 AM,28.0,25.2,89,29.64,10.0,Calm,Calm,-,N/A,,Scattered Clouds,0,2013-09-25 10:56:00
3:27 AM,26.6,23.0,86,29.62,10.0,SSE,9.2,-,N/A,,Mostly Cloudy,150,2013-09-25 11:27:00
3:49 AM,23.0,19.4,86,29.62,10.0,SE,8.1,-,N/A,,Scattered Clouds,140,2013-09-25 11:49:00
3:56 AM,22.1,19.0,88,29.63,10.0,SE,12.7,-,N/A,,Partly Cloudy,140,2013-09-25 11:56:00
4:56 AM,25.2,21.0,84,29.62,10.0,South,8.1,-,N/A,,Clear,170,2013-09-25 12:56:00
5:56 AM,25.2,21.0,84,29.61,10.0,SSE,8.1,-,N/A,,Clear,160,2013-09-25 13:56:00
6:56 AM,26.6,21.2,80,29.59,10.0,SSE,5.8,-,N/A,,Mostly Cloudy,150,2013-09-25 14:56:00
7:56 AM,23.0,20.1,89,29.60,10.0,SSE,6.9,-,N/A,,Overcast,150,2013-09-25 15:56:00
8:56 AM,25.2,22.1,88,29.59,10.0,South,6.9,-,N/A,,Overcast,170,2013-09-25 16:56:00
9:56 AM,24.1,22.1,92,29.59,10.0,South,8.1,-,N/A,,Partly Cloudy,170,2013-09-25 17:56:00
10:56 AM,25.2,22.1,88,29.59,10.0,South,5.8,-,N/A,,Scattered Clouds,180,2013-09-25 18:56:00
11:56 AM,31.1,27.1,85,29.58,10.0,South,8.1,-,N/A,,Partly Cloudy,170,2013-09-25 19:56:00
12:56 PM,32.0,27.1,82,29.57,10.0,South,5.8,-,N/A,,Scattered Clouds,190,2013-09-25 20:56:00
1:56 PM,32.0,27.1,82,29.58,10.0,SSW,6.9,-,N/A,,Clear,200,2013-09-25 21:56:00
2:56 PM,32.9,28.0,82,29.58,10.0,South,5.8,-,N/A,,Clear,190,2013-09-25 22:56:00
3:56 PM,34.0,28.0,79,29.59,10.0,West,10.4,-,N/A,,Partly Cloudy,280,2013-09-25 23:56:00
4:56 PM,32.0,29.1,89,29.60,10.0,WNW,11.5,-,N/A,,Scattered Clouds,300,2013-09-26 00:56:00
5:56 PM,32.9,27.1,79,29.59,10.0,West,3.5,-,N/A,,Clear,270,2013-09-26 01:56:00
6:56 PM,32.9,29.1,86,29.60,10.0,WNW,10.4,-,N/A,,Partly Cloudy,300,2013-09-26 02:56:00
7:56 PM,34.0,27.1,76,29.60,10.0,Calm,Calm,-,N/A,,Scattered Clouds,0,2013-09-26 03:56:00
8:56 PM,32.9,27.1,79,29.61,10.0,Calm,Calm,-,N/A,,Scattered Clouds,0,2013-09-26 04:56:00
9:56 PM,32.9,26.1,76,29.62,10.0,Calm,Calm,-,N/A,,Overcast,0,2013-09-26 05:56:00
10:56 PM,31.1,27.1,85,29.63,10.0,Calm,Calm,-,N/A,,Mostly Cloudy,0,2013-09-26 06:56:00
11:39 PM,30.2,28.4,93,29.62,3.0,WSW,16.1,20.7,0.00,Snow,Light Snow,240,2013-09-26 07:39:00
11:47 PM,30.2,28.4,93,29.62,5.0,WSW,17.3,-,0.00,Snow,Light Snow,240,2013-09-26 07:47:00
11:56 PM,31.1,29.1,92,29.64,3.0,SW,13.8,-,0.00,Snow,Light Snow,230,2013-09-26 07:56:00